createdAt,value
2022-11-17T00:00:21.550Z,9.65
2022-11-17T00:02:50.681Z,8.98
2022-11-17T00:05:18.633Z,9.60
2022-11-17T00:07:48.903Z,11.93
2022-11-17T00:10:18.162Z,8.68
2022-11-17T00:13:03.331Z,11.02
2022-11-17T00:15:31.106Z,8.10
2022-11-17T00:18:14.005Z,9.45
2022-11-17T00:21:00.270Z,9.35
2022-11-17T00:23:46.905Z,9.18
2022-11-17T00:26:16.458Z,8.63
2022-11-17T00:28:44.126Z,9.55
2022-11-17T00:31:30.299Z,8.20
2022-11-17T00:34:05.940Z,8.52
2022-11-17T00:36:35.406Z,8.48
2022-11-17T00:39:03.057Z,8.50
2022-11-17T00:41:30.761Z,8.57
2022-11-17T00:43:58.378Z,10.93
2022-11-17T00:46:26.037Z,10.85
2022-11-17T00:48:53.816Z,10.93
2022-11-17T00:51:23.355Z,8.32
2022-11-17T00:53:51.045Z,14.25
2022-11-17T00:56:18.793Z,12.13
2022-11-17T00:58:46.513Z,10.15
2022-11-17T01:01:14.303Z,13.60
2022-11-17T01:03:42.102Z,10.32
2022-11-17T01:06:11.771Z,10.38
2022-11-17T01:08:41.109Z,10.27
2022-11-17T01:11:11.335Z,9.80
2022-11-17T01:13:40.113Z,13.73
2022-11-17T01:16:10.437Z,11.13
2022-11-17T01:18:38.696Z,9.80
2022-11-17T01:21:09.136Z,9.00
2022-11-17T01:23:37.831Z,12.80
2022-11-17T01:26:09.507Z,9.65
2022-11-17T01:28:37.946Z,7.90
2022-11-17T01:31:08.191Z,6.70
2022-11-17T01:33:36.098Z,9.98
2022-11-17T01:38:32.786Z,7.45
2022-11-17T01:41:01.331Z,8.95
2022-11-17T01:43:42.834Z,8.77
2022-11-17T01:46:19.989Z,9.40
2022-11-17T01:48:49.923Z,8.23
2022-11-17T01:51:18.613Z,8.40
2022-11-17T01:53:47.719Z,9.38
2022-11-17T01:56:20.579Z,8.50
2022-11-17T01:58:55.837Z,8.52
2022-11-17T02:01:23.572Z,7.30
2022-11-17T02:03:51.932Z,6.88
2022-11-17T02:06:25.447Z,8.15
2022-11-17T02:08:54.831Z,10.57
2022-11-17T02:11:23.787Z,7.75
2022-11-17T02:13:55.841Z,11.77
2022-11-17T02:16:23.528Z,7.20
2022-11-17T02:18:51.325Z,8.35
2022-11-17T02:21:56.825Z,7.43
2022-11-17T02:24:54.801Z,8.10
2022-11-17T02:27:53.317Z,6.72
2022-11-17T02:30:22.926Z,8.18
2022-11-17T02:33:01.904Z,8.15
2022-11-17T02:35:37.543Z,8.40
2022-11-17T02:38:17.779Z,7.18
2022-11-17T02:40:50.648Z,5.60
2022-11-17T02:43:41.121Z,6.20
2022-11-17T02:46:12.120Z,5.78
2022-11-17T02:48:42.816Z,7.05
2022-11-17T02:51:15.608Z,5.10
2022-11-17T02:53:43.890Z,6.50
2022-11-17T02:56:11.565Z,5.82
2022-11-17T02:58:40.570Z,7.80
2022-11-17T03:01:28.459Z,6.68
2022-11-17T03:04:11.826Z,7.00
2022-11-17T03:06:47.848Z,4.88
2022-11-17T03:09:22.747Z,6.38
2022-11-17T03:11:55.163Z,5.47
2022-11-17T03:14:32.480Z,4.90
2022-11-17T03:17:06.751Z,4.80
2022-11-17T03:19:39.206Z,5.65
2022-11-17T03:22:13.073Z,8.65
2022-11-17T03:24:46.031Z,6.43
2022-11-17T03:27:18.948Z,5.28
2022-11-17T03:29:52.228Z,6.18
2022-11-17T03:32:20.465Z,5.57
2022-11-17T03:34:53.250Z,8.90
2022-11-17T03:37:24.043Z,4.97
2022-11-17T03:39:54.815Z,9.38
2022-11-17T03:42:26.831Z,7.30
2022-11-17T03:44:58.265Z,4.63
2022-11-17T03:47:29.268Z,5.30
2022-11-17T03:50:03.109Z,4.93
2022-11-17T03:52:31.839Z,5.97
2022-11-17T03:54:59.875Z,4.63
2022-11-17T04:00:01.591Z,4.72
2022-11-17T04:02:29.395Z,5.32
2022-11-17T04:05:09.297Z,6.88
2022-11-17T04:07:40.075Z,7.15
2022-11-17T04:10:09.827Z,5.20
2022-11-17T04:12:55.177Z,5.43
2022-11-17T04:15:47.585Z,5.47
2022-11-17T04:18:15.992Z,4.65
2022-11-17T04:20:43.670Z,5.97
2022-11-17T04:23:14.250Z,6.78
2022-11-17T04:26:01.568Z,4.90
2022-11-17T04:28:39.779Z,5.63
2022-11-17T04:31:11.677Z,5.28
2022-11-17T04:33:41.042Z,5.32
2022-11-17T04:36:10.035Z,6.35
2022-11-17T04:38:37.866Z,4.72
2022-11-17T04:41:24.597Z,4.68
2022-11-17T04:43:52.558Z,6.53
2022-11-17T04:46:23.040Z,7.20
2022-11-17T04:48:50.711Z,4.45
2022-11-17T04:51:18.469Z,4.78
2022-11-17T04:53:46.336Z,3.65
2022-11-17T04:56:14.324Z,6.25
2022-11-17T05:01:17.504Z,5.22
2022-11-17T05:03:48.221Z,4.38
2022-11-17T05:06:17.531Z,4.15
2022-11-17T05:08:45.800Z,4.72
2022-11-17T05:11:32.481Z,4.82
2022-11-17T05:14:00.559Z,4.85
2022-11-17T05:19:16.921Z,5.70
2022-11-17T05:21:44.559Z,4.25
2022-11-17T05:24:11.592Z,4.05
2022-11-17T05:26:39.568Z,5.22
2022-11-17T05:31:35.811Z,4.70
2022-11-17T05:34:04.152Z,5.65
2022-11-17T05:36:33.845Z,4.35
2022-11-17T05:39:01.805Z,8.45
2022-11-17T05:41:29.815Z,6.28
2022-11-17T05:46:25.709Z,6.82
2022-11-17T05:48:54.143Z,6.50
2022-11-17T05:51:24.412Z,6.20
2022-11-17T05:53:53.411Z,6.88
2022-11-17T05:56:36.536Z,5.40
2022-11-17T05:59:23.319Z,6.57
2022-11-17T06:02:00.398Z,5.07
2022-11-17T06:04:28.506Z,9.77
2022-11-17T06:06:59.025Z,6.55
2022-11-17T06:09:30.724Z,5.10
2022-11-17T06:12:02.611Z,5.63
2022-11-17T06:14:33.485Z,4.78
2022-11-17T06:17:06.124Z,9.95
2022-11-17T06:19:39.422Z,5.47
2022-11-17T06:22:12.610Z,6.68
2022-11-17T06:24:44.156Z,5.10
2022-11-17T06:27:13.023Z,6.47
2022-11-17T06:29:43.847Z,5.03
2022-11-17T06:32:13.042Z,3.63
2022-11-17T06:34:40.847Z,7.38
2022-11-17T06:37:08.480Z,7.95
2022-11-17T06:39:36.139Z,6.53
2022-11-17T06:42:05.286Z,5.32
2022-11-17T06:44:33.017Z,6.95
2022-11-17T06:47:00.668Z,5.88
2022-11-17T06:49:28.498Z,6.68
2022-11-17T06:51:56.181Z,7.47
2022-11-17T06:54:23.884Z,5.55
2022-11-17T06:56:52.503Z,6.07
2022-11-17T06:59:21.551Z,4.70
2022-11-17T07:01:49.230Z,5.72
2022-11-17T07:04:16.927Z,5.53
2022-11-17T07:06:44.616Z,4.88
2022-11-17T07:09:12.310Z,5.13
2022-11-17T07:11:40.050Z,7.05
2022-11-17T07:14:07.780Z,5.35
2022-11-17T07:16:37.398Z,8.73
2022-11-17T07:19:05.120Z,3.78
2022-11-17T07:21:33.849Z,5.00
2022-11-17T07:24:01.694Z,4.13
2022-11-17T07:26:29.399Z,3.38
2022-11-17T07:28:57.155Z,5.80
2022-11-17T07:31:24.900Z,9.20
2022-11-17T07:33:55.124Z,6.88
2022-11-17T07:36:22.873Z,5.60
2022-11-17T07:38:50.579Z,4.35
2022-11-17T07:41:18.267Z,4.22
2022-11-17T07:43:45.962Z,3.17
2022-11-17T07:46:15.250Z,8.85
2022-11-17T07:48:44.362Z,6.00
2022-11-17T07:51:14.130Z,5.60
2022-11-17T07:53:41.945Z,6.97
2022-11-17T07:56:11.336Z,8.57
2022-11-17T07:58:39.837Z,2.90
2022-11-17T08:01:08.987Z,5.65
2022-11-17T08:03:36.929Z,3.08
2022-11-17T08:06:05.292Z,3.28
2022-11-17T08:08:35.448Z,3.40
2022-11-17T08:11:04.633Z,3.58
2022-11-17T08:13:32.434Z,3.90
2022-11-17T08:16:00.385Z,3.45
2022-11-17T08:18:30.442Z,4.50
2022-11-17T08:21:03.474Z,3.50
2022-11-17T08:23:31.331Z,2.83
2022-11-17T08:26:00.524Z,6.53
2022-11-17T08:28:28.283Z,2.80
2022-11-17T08:30:56.035Z,3.47
2022-11-17T08:33:23.815Z,3.90
2022-11-17T08:35:51.514Z,4.38
2022-11-17T08:38:19.413Z,2.95
2022-11-17T08:40:47.829Z,3.38
2022-11-17T08:43:16.870Z,5.30
2022-11-17T08:45:44.612Z,3.92
2022-11-17T08:48:12.294Z,4.22
2022-11-17T08:50:40.101Z,4.60
2022-11-17T08:53:07.902Z,3.22
2022-11-17T08:55:41.213Z,5.35
2022-11-17T08:58:09.322Z,5.22
2022-11-17T09:00:38.407Z,3.88
2022-11-17T09:03:07.540Z,3.55
2022-11-17T09:05:39.704Z,2.30
2022-11-17T09:08:37.819Z,4.05
2022-11-17T09:10:55.219Z,5.65
2022-11-17T09:13:22.972Z,3.45
2022-11-17T09:15:52.027Z,3.70
2022-11-17T09:18:19.717Z,3.25
2022-11-17T09:20:47.377Z,3.22
2022-11-17T09:23:15.089Z,5.38
2022-11-17T09:25:42.773Z,3.20
2022-11-17T09:28:10.464Z,2.72
2022-11-17T09:30:38.228Z,4.32
2022-11-17T09:33:07.264Z,5.80
2022-11-17T09:35:34.950Z,5.07
2022-11-17T09:38:02.802Z,2.58
2022-11-17T09:40:36.293Z,4.40
2022-11-17T09:43:09.770Z,6.10
2022-11-17T09:45:39.878Z,6.40
2022-11-17T09:48:39.593Z,4.47
2022-11-17T09:51:04.374Z,3.72
2022-11-17T09:53:43.215Z,4.22
2022-11-17T09:56:13.275Z,4.18
2022-11-17T09:58:46.177Z,6.13
2022-11-17T10:01:16.100Z,5.05
2022-11-17T10:03:47.795Z,3.75
2022-11-17T10:06:20.355Z,4.50
2022-11-17T10:08:58.174Z,4.05
2022-11-17T10:11:33.835Z,6.50
2022-11-17T10:14:13.439Z,5.70
2022-11-17T10:16:43.628Z,3.95
2022-11-17T10:19:17.892Z,5.38
2022-11-17T10:21:46.669Z,5.00
2022-11-17T10:24:34.876Z,4.82
2022-11-17T10:27:03.692Z,3.92
2022-11-17T10:29:31.455Z,4.32
2022-11-17T10:31:59.772Z,8.48
2022-11-17T10:34:41.413Z,5.43
2022-11-17T10:37:25.486Z,3.30
2022-11-17T10:40:10.147Z,4.40
2022-11-17T10:42:38.014Z,4.57
2022-11-17T10:45:07.376Z,3.58
2022-11-17T10:47:39.414Z,5.85
2022-11-17T10:50:27.476Z,5.65
2022-11-17T10:53:17.019Z,2.90
2022-11-17T10:55:45.434Z,4.72
2022-11-17T10:58:24.553Z,6.80
2022-11-17T11:00:54.781Z,7.90
2022-11-17T11:03:24.744Z,3.33
2022-11-17T11:05:59.734Z,5.82
2022-11-17T11:08:32.039Z,3.85
2022-11-17T11:11:01.173Z,5.47
2022-11-17T11:13:35.015Z,4.57
2022-11-17T11:16:02.729Z,3.92
2022-11-17T11:18:32.703Z,5.18
2022-11-17T11:21:12.513Z,5.15
2022-11-17T11:23:49.556Z,4.55
2022-11-17T11:26:45.553Z,7.13
2022-11-17T11:29:26.027Z,5.25
2022-11-17T11:32:07.686Z,6.55
2022-11-17T11:34:50.605Z,5.72
2022-11-17T11:37:19.894Z,4.55
2022-11-17T11:39:56.270Z,4.55
2022-11-17T11:42:46.071Z,3.83
2022-11-17T11:45:36.550Z,6.03
2022-11-17T11:48:17.621Z,4.18
2022-11-17T11:50:53.620Z,5.18
2022-11-17T11:53:28.141Z,4.32
2022-11-17T11:56:11.193Z,3.78
2022-11-17T11:58:44.128Z,3.95
2022-11-17T12:01:17.169Z,6.63
2022-11-17T12:03:50.966Z,6.05
2022-11-17T12:06:44.182Z,6.05
2022-11-17T12:09:45.894Z,4.65
2022-11-17T12:12:17.196Z,5.57
2022-11-17T12:15:30.450Z,6.13
2022-11-17T12:18:03.931Z,7.05
2022-11-17T12:20:54.669Z,3.50
2022-11-17T12:23:57.590Z,4.53
2022-11-17T12:26:28.931Z,6.25
2022-11-17T12:29:26.540Z,4.40
2022-11-17T12:31:55.957Z,6.30
2022-11-17T12:34:28.977Z,4.72
2022-11-17T12:37:26.286Z,6.63
2022-11-17T12:39:57.151Z,6.15
2022-11-17T12:42:26.532Z,4.22
2022-11-17T12:45:00.245Z,3.72
2022-11-17T12:47:29.806Z,7.90
2022-11-17T12:50:19.868Z,5.20
2022-11-17T12:52:59.995Z,10.85
2022-11-17T12:55:43.707Z,9.07
2022-11-17T12:58:20.884Z,7.75
2022-11-17T13:00:54.882Z,7.85
2022-11-17T13:03:29.321Z,4.85
2022-11-17T13:06:33.929Z,5.85
2022-11-17T13:08:57.805Z,4.60
2022-11-17T13:11:25.998Z,5.72
2022-11-17T13:14:11.551Z,5.32
2022-11-17T13:16:46.233Z,6.05
2022-11-17T13:19:32.270Z,8.90
2022-11-17T13:22:01.697Z,3.88
2022-11-17T13:24:31.718Z,4.97
2022-11-17T13:27:00.678Z,6.63
2022-11-17T13:29:29.741Z,4.38
2022-11-17T13:32:13.627Z,4.70
2022-11-17T13:34:53.131Z,4.22
2022-11-17T13:37:22.946Z,6.65
2022-11-17T13:40:02.392Z,4.10
2022-11-17T13:42:33.412Z,4.68
2022-11-17T13:45:06.093Z,4.50
2022-11-17T13:47:46.407Z,4.18
2022-11-17T13:50:38.181Z,7.72
2022-11-17T13:53:23.866Z,6.25
2022-11-17T13:55:52.622Z,5.93
2022-11-17T13:58:38.143Z,4.85
2022-11-17T14:01:07.943Z,4.25
2022-11-17T14:03:38.759Z,4.75
2022-11-17T14:06:08.350Z,3.17
2022-11-17T14:08:37.289Z,5.72
2022-11-17T14:11:16.467Z,4.68
2022-11-17T14:13:46.206Z,5.28
2022-11-17T14:16:25.789Z,5.07
2022-11-17T14:18:59.674Z,3.70
2022-11-17T14:21:27.933Z,6.82
2022-11-17T14:24:05.359Z,5.60
2022-11-17T14:26:33.334Z,3.67
2022-11-17T14:29:02.369Z,3.00
2022-11-17T14:31:33.351Z,4.35
2022-11-17T14:34:01.164Z,3.30
2022-11-17T14:36:29.114Z,4.38
2022-11-17T14:38:56.858Z,3.78
2022-11-17T14:41:24.487Z,4.10
2022-11-17T14:43:52.239Z,5.35
2022-11-17T14:46:22.804Z,6.43
2022-11-17T14:48:52.408Z,5.25
2022-11-17T14:51:20.915Z,4.15
2022-11-17T14:53:49.193Z,5.72
2022-11-17T14:56:18.857Z,5.80
2022-11-17T14:58:46.892Z,3.95
2022-11-17T15:03:44.143Z,4.18
2022-11-17T15:06:19.446Z,3.25
2022-11-17T15:08:47.810Z,4.60
2022-11-17T15:11:17.511Z,4.97
2022-11-17T15:13:45.293Z,5.28
2022-11-17T15:16:13.577Z,3.78
2022-11-17T15:18:41.268Z,4.70
2022-11-17T15:21:11.021Z,5.18
2022-11-17T15:23:41.667Z,3.33
2022-11-17T15:26:12.064Z,5.53
2022-11-17T15:28:39.773Z,3.28
2022-11-17T15:31:12.729Z,4.13
2022-11-17T15:33:41.721Z,4.25
2022-11-17T15:36:11.546Z,4.60
2022-11-17T15:38:41.553Z,4.32
2022-11-17T15:41:11.596Z,3.75
2022-11-17T15:43:40.972Z,3.85
2022-11-17T15:46:10.568Z,3.28
2022-11-17T15:48:40.168Z,3.55
2022-11-17T15:51:09.028Z,4.05
2022-11-17T15:53:38.517Z,2.53
2022-11-17T15:56:09.802Z,3.22
2022-11-17T15:58:37.723Z,4.05
2022-11-17T16:01:13.655Z,4.53
2022-11-17T16:03:43.103Z,2.83
2022-11-17T16:06:12.149Z,2.40
2022-11-17T16:08:40.509Z,3.40
2022-11-17T16:11:10.902Z,3.70
2022-11-17T16:13:39.090Z,4.00
2022-11-17T16:16:08.645Z,3.20
2022-11-17T16:18:38.559Z,4.07
2022-11-17T16:21:07.853Z,2.92
2022-11-17T16:23:39.813Z,8.52
2022-11-17T16:26:09.359Z,6.13
2022-11-17T16:28:37.236Z,3.70
2022-11-17T16:31:15.765Z,4.88
2022-11-17T16:33:48.123Z,3.90
2022-11-17T16:36:15.946Z,7.95
2022-11-17T16:38:59.775Z,5.80
2022-11-17T16:41:32.567Z,6.65
2022-11-17T16:44:00.891Z,5.07
2022-11-17T16:46:30.466Z,4.28
2022-11-17T16:49:01.489Z,4.45
2022-11-17T16:51:29.471Z,3.60
2022-11-17T16:53:59.368Z,4.68
2022-11-17T16:56:27.412Z,5.72
2022-11-17T16:58:57.151Z,3.25
2022-11-17T17:01:27.246Z,4.50
2022-11-17T17:03:58.549Z,4.22
2022-11-17T17:06:26.590Z,5.40
2022-11-17T17:08:55.304Z,4.38
2022-11-17T17:11:23.561Z,4.97
2022-11-17T17:13:51.529Z,4.43
2022-11-17T17:16:21.310Z,5.30
2022-11-17T17:18:49.055Z,5.32
2022-11-17T17:21:20.218Z,4.57
2022-11-17T17:23:48.133Z,3.90
2022-11-17T17:26:18.344Z,4.18
2022-11-17T17:28:48.366Z,3.00
2022-11-17T17:31:21.396Z,3.75
2022-11-17T17:33:51.801Z,3.60
2022-11-17T17:36:20.966Z,3.70
2022-11-17T17:38:54.991Z,4.85
2022-11-17T17:41:24.488Z,5.82
2022-11-17T17:43:57.402Z,2.92
2022-11-17T17:46:25.556Z,4.93
2022-11-17T17:48:54.795Z,4.05
2022-11-17T17:51:25.024Z,3.67
2022-11-17T17:53:53.679Z,7.28
2022-11-17T17:56:22.603Z,6.07
2022-11-17T17:58:51.744Z,3.70
2022-11-17T18:01:21.867Z,3.85
2022-11-17T18:03:51.174Z,4.18
2022-11-17T18:06:22.359Z,3.78
2022-11-17T18:08:50.504Z,2.60
2022-11-17T18:11:20.047Z,5.15
2022-11-17T18:13:49.651Z,4.00
2022-11-17T18:16:19.929Z,3.70
2022-11-17T18:18:47.821Z,4.80
2022-11-17T18:21:18.198Z,2.63
2022-11-17T18:23:47.432Z,5.35
2022-11-17T18:26:17.181Z,4.95
2022-11-17T18:28:50.347Z,4.60
2022-11-17T18:31:18.136Z,8.45
2022-11-17T18:33:46.207Z,3.55
2022-11-17T18:38:41.415Z,4.65
2022-11-17T18:41:12.170Z,5.65
2022-11-17T18:43:40.059Z,3.63
2022-11-17T18:46:09.261Z,6.13
2022-11-17T18:48:39.156Z,7.00
2022-11-17T18:51:23.304Z,3.90
2022-11-17T18:53:52.700Z,5.30
2022-11-17T18:56:24.686Z,4.00
2022-11-17T18:58:53.085Z,3.95
2022-11-17T19:01:22.746Z,4.50
2022-11-17T19:03:52.395Z,3.80
2022-11-17T19:06:21.186Z,3.03
2022-11-17T19:08:49.295Z,3.67
2022-11-17T19:13:47.478Z,4.50
2022-11-17T19:16:17.302Z,4.70
2022-11-17T19:18:46.998Z,4.47
2022-11-17T19:21:16.367Z,3.60
2022-11-17T19:23:51.118Z,3.95
2022-11-17T19:26:22.076Z,6.22
2022-11-17T19:28:52.027Z,3.33
2022-11-17T19:31:21.252Z,4.00
2022-11-17T19:33:50.041Z,3.33
2022-11-17T19:36:20.026Z,5.75
2022-11-17T19:38:49.983Z,5.07
2022-11-17T19:41:19.797Z,6.88
2022-11-17T19:43:47.917Z,3.33
2022-11-17T19:48:46.395Z,4.20
2022-11-17T19:51:16.540Z,5.05
2022-11-17T19:53:44.662Z,4.25
2022-11-17T19:58:41.125Z,5.03
2022-11-17T20:01:10.642Z,4.85
2022-11-17T20:03:40.938Z,4.97
2022-11-17T20:06:09.767Z,7.35
2022-11-17T20:08:37.757Z,4.75
2022-11-17T20:11:07.706Z,9.20
2022-11-17T20:13:36.363Z,6.10
2022-11-17T20:16:11.523Z,4.53
2022-11-17T20:18:41.777Z,4.57
2022-11-17T20:21:10.264Z,3.80
2022-11-17T20:23:39.309Z,5.72
2022-11-17T20:26:08.273Z,5.65
2022-11-17T20:28:37.758Z,5.22
2022-11-17T20:31:09.933Z,8.60
2022-11-17T20:33:38.133Z,6.50
2022-11-17T20:38:35.909Z,5.15
2022-11-17T20:41:05.019Z,4.53
2022-11-17T20:43:33.877Z,6.10
2022-11-17T20:46:02.003Z,4.35
2022-11-17T20:50:58.594Z,5.35
2022-11-17T20:53:28.734Z,4.47
2022-11-17T20:55:57.044Z,6.35
2022-11-17T20:58:25.263Z,5.38
2022-11-17T21:00:53.252Z,4.82
2022-11-17T21:03:21.597Z,8.20
2022-11-17T21:05:58.763Z,5.72
2022-11-17T21:08:30.509Z,5.30
2022-11-17T21:10:58.855Z,5.75
2022-11-17T21:13:27.501Z,5.38
2022-11-17T21:16:10.613Z,8.95
2022-11-17T21:18:39.742Z,7.38
2022-11-17T21:21:09.591Z,5.55
2022-11-17T21:23:40.006Z,4.22
2022-11-17T21:26:08.708Z,5.45
2022-11-17T21:28:37.196Z,5.53
2022-11-17T21:31:08.031Z,6.07
2022-11-17T21:33:36.173Z,5.72
2022-11-17T21:38:35.856Z,6.55
2022-11-17T21:41:05.418Z,5.97
2022-11-17T21:43:33.694Z,5.88
2022-11-17T21:46:06.723Z,6.95
2022-11-17T21:48:35.304Z,5.63
2022-11-17T21:51:03.169Z,5.30
2022-11-17T21:53:31.375Z,6.47
2022-11-17T21:56:02.447Z,6.65
2022-11-17T21:58:31.521Z,8.32
2022-11-17T22:00:59.666Z,6.28
2022-11-17T22:03:27.698Z,5.47
2022-11-17T22:06:00.997Z,6.72
2022-11-17T22:08:29.832Z,4.75
2022-11-17T22:10:57.498Z,5.47
2022-11-17T22:13:25.211Z,5.78
2022-11-17T22:15:54.266Z,6.18
2022-11-17T22:18:22.226Z,5.35
2022-11-17T22:20:51.865Z,6.00
2022-11-17T22:23:19.608Z,4.43
2022-11-17T22:25:54.240Z,5.05
2022-11-17T22:28:22.505Z,4.60
2022-11-17T22:33:20.257Z,6.90
2022-11-17T22:35:48.744Z,6.15
2022-11-17T22:38:17.098Z,7.22
2022-11-17T22:40:44.901Z,7.25
2022-11-17T22:43:15.431Z,8.45
2022-11-17T22:45:43.766Z,6.55
2022-11-17T22:48:11.590Z,6.32
2022-11-17T22:50:40.680Z,7.65
2022-11-17T22:53:08.380Z,5.75
2022-11-17T22:55:36.252Z,7.53
2022-11-17T22:58:03.950Z,7.40
2022-11-17T23:00:33.540Z,7.68
2022-11-17T23:03:01.464Z,9.68
2022-11-17T23:05:29.202Z,5.68
2022-11-17T23:07:58.304Z,7.45
2022-11-17T23:10:25.987Z,7.13
2022-11-17T23:12:53.720Z,6.20
2022-11-17T23:15:21.766Z,7.38
2022-11-17T23:17:49.842Z,9.40
2022-11-17T23:20:17.608Z,6.43
2022-11-17T23:22:45.255Z,5.75
2022-11-17T23:25:14.321Z,8.07
2022-11-17T23:27:42.135Z,7.50
2022-11-17T23:30:10.830Z,6.25
2022-11-17T23:32:38.514Z,6.43
2022-11-17T23:35:06.901Z,7.28
2022-11-17T23:37:34.591Z,6.57
2022-11-17T23:40:02.436Z,6.13
2022-11-17T23:42:32.630Z,9.07
2022-11-17T23:45:00.755Z,9.10
2022-11-17T23:47:28.388Z,5.05
2022-11-17T23:49:55.989Z,7.65
2022-11-17T23:52:23.674Z,6.63
2022-11-17T23:54:51.317Z,5.78
2022-11-17T23:57:18.970Z,5.75
2022-11-17T23:59:47.964Z,8.70
